Time;durP1;ratioP1;P1;durP2;ratioP2;P2;SDS_P1;SDS_P2;PMS_P1;PMS_P2;Temp;Humidity;BMP_temperature;BMP_pressure;BME280_temperature;BME280_humidity;BME280_pressure;Samples;Min_cycle;Max_cycle;Signal;HPM_P1;HPM_P2
2021/07/22 00:01:52;;;;;;;14.65;10.60;;;;;;;;;;4956386;28;20062;-77
2021/07/22 00:04:18;;;;;;;16.88;11.13;;;;;;;;;;4955989;28;20497;-77
2021/07/22 00:06:45;;;;;;;16.85;10.50;;;;;;;;;;4955632;28;20063;-76
2021/07/22 00:09:13;;;;;;;16.60;10.77;;;;;;;;;;4955742;28;20570;-77
2021/07/22 00:11:45;;;;;;;18.23;11.52;;;;;;;;;;4956331;28;20047;-77
2021/07/22 00:14:12;;;;;;;15.98;11.32;;;;;;;;;;4955768;29;20089;-77
2021/07/22 00:16:39;;;;;;;18.88;10.60;;;;;;;;;;4955150;29;20047;-77
2021/07/22 00:19:05;;;;;;;16.10;10.70;;;;;;;;;;4955901;28;20086;-76
2021/07/22 00:21:32;;;;;;;16.25;10.68;;;;;;;;;;4955755;28;20051;-76
2021/07/22 00:23:59;;;;;;;15.23;10.68;;;;;;;;;;4955659;29;20043;-77
2021/07/22 00:26:27;;;;;;;16.30;10.88;;;;;;;;;;4954930;29;20493;-76
2021/07/22 00:28:54;;;;;;;15.48;10.90;;;;;;;;;;4955409;28;20497;-77
2021/07/22 00:31:21;;;;;;;18.05;11.38;;;;;;;;;;4955642;28;20117;-77
2021/07/22 00:33:50;;;;;;;15.80;10.80;;;;;;;;;;4955736;29;20047;-77
2021/07/22 00:36:16;;;;;;;15.30;10.48;;;;;;;;;;4955266;29;20114;-76
2021/07/22 00:38:43;;;;;;;17.13;11.65;;;;;;;;;;4955767;28;20051;-77
2021/07/22 00:41:11;;;;;;;18.05;11.25;;;;;;;;;;4955053;28;20126;-77
2021/07/22 00:43:40;;;;;;;16.55;10.98;;;;;;;;;;4954906;29;20107;-77
2021/07/22 00:46:07;;;;;;;15.73;11.48;;;;;;;;;;4954713;28;20147;-77
2021/07/22 00:48:34;;;;;;;18.05;12.35;;;;;;;;;;4955247;28;20509;-76
2021/07/22 00:51:00;;;;;;;17.25;12.18;;;;;;;;;;4955324;29;20449;-77
2021/07/22 00:53:27;;;;;;;15.10;11.75;;;;;;;;;;4955361;29;20044;-77
2021/07/22 00:55:54;;;;;;;18.00;12.32;;;;;;;;;;4954628;29;20059;-77
2021/07/22 00:58:21;;;;;;;16.90;11.68;;;;;;;;;;4955506;28;20051;-76
2021/07/22 01:00:49;;;;;;;17.95;12.55;;;;;;;;;;4955174;28;20043;-76
2021/07/22 01:03:15;;;;;;;17.85;11.45;;;;;;;;;;4955157;28;20428;-76
2021/07/22 01:05:42;;;;;;;17.65;12.88;;;;;;;;;;4954328;28;20051;-76
2021/07/22 01:08:09;;;;;;;18.35;12.82;;;;;;;;;;4954812;28;20059;-76
2021/07/22 01:10:36;;;;;;;17.17;11.38;;;;;;;;;;4955040;28;20047;-76
2021/07/22 01:13:03;;;;;;;17.77;12.48;;;;;;;;;;4954689;28;20453;-76
2021/07/22 01:15:30;;;;;;;16.67;11.23;;;;;;;;;;4954400;29;20051;-77
2021/07/22 01:17:58;;;;;;;19.08;12.38;;;;;;;;;;4954754;28;20103;-76
2021/07/22 01:20:28;;;;;;;17.58;11.48;;;;;;;;;;4954920;29;20047;-76
2021/07/22 01:22:56;;;;;;;17.48;11.27;;;;;;;;;;4954547;28;20454;-76
2021/07/22 01:25:24;;;;;;;17.75;11.80;;;;;;;;;;4953949;29;20059;-78
2021/07/22 01:27:52;;;;;;;17.60;11.75;;;;;;;;;;4956233;28;20047;-78
2021/07/22 01:30:19;;;;;;;15.98;11.80;;;;;;;;;;4956214;28;20465;-77
2021/07/22 01:32:46;;;;;;;16.73;11.48;;;;;;;;;;4956760;29;20047;-77
2021/07/22 01:35:14;;;;;;;15.75;11.88;;;;;;;;;;4955187;29;20098;-77
2021/07/22 01:37:42;;;;;;;19.90;12.68;;;;;;;;;;4955256;28;20104;-77
2021/07/22 01:40:11;;;;;;;20.88;14.07;;;;;;;;;;4955768;29;20098;-78
2021/07/22 01:42:38;;;;;;;19.42;13.30;;;;;;;;;;4956597;28;20102;-78
2021/07/22 01:45:05;;;;;;;18.40;12.35;;;;;;;;;;4956310;28;20098;-78
2021/07/22 01:47:33;;;;;;;18.52;12.60;;;;;;;;;;4956048;28;20046;-78
2021/07/22 01:50:00;;;;;;;17.83;11.65;;;;;;;;;;4956102;29;20047;-78
2021/07/22 01:52:26;;;;;;;16.42;12.15;;;;;;;;;;4955879;28;20465;-78
2021/07/22 01:54:55;;;;;;;16.15;11.50;;;;;;;;;;4955208;29;20543;-78
2021/07/22 01:57:22;;;;;;;17.13;11.95;;;;;;;;;;4956386;28;20420;-78
2021/07/22 01:59:49;;;;;;;17.40;12.10;;;;;;;;;;4956282;28;20047;-78
2021/07/22 02:02:15;;;;;;;16.48;11.13;;;;;;;;;;4956528;28;20051;-78
2021/07/22 02:04:43;;;;;;;17.17;12.02;;;;;;;;;;4955923;28;20055;-77
2021/07/22 02:07:13;;;;;;;15.57;11.48;;;;;;;;;;4956143;28;20110;-78
2021/07/22 02:09:39;;;;;;;17.70;11.95;;;;;;;;;;4955896;28;20475;-78
2021/07/22 02:12:09;;;;;;;18.98;12.55;;;;;;;;;;4956075;28;20062;-78
2021/07/22 02:14:36;;;;;;;17.10;12.00;;;;;;;;;;4955465;29;20332;-75
2021/07/22 02:17:03;;;;;;;17.45;11.82;;;;;;;;;;4954627;28;20054;-77
2021/07/22 02:19:29;;;;;;;19.25;11.68;;;;;;;;;;4954256;28;20051;-77
2021/07/22 02:21:56;;;;;;;18.95;11.52;;;;;;;;;;4953945;29;20066;-77
2021/07/22 02:24:23;;;;;;;17.17;11.90;;;;;;;;;;4954135;29;20102;-76
2021/07/22 02:26:50;;;;;;;16.65;11.35;;;;;;;;;;4953027;29;20135;-76
2021/07/22 02:29:18;;;;;;;16.45;10.77;;;;;;;;;;4953690;28;20433;-76
2021/07/22 02:31:44;;;;;;;17.42;11.05;;;;;;;;;;4953751;29;20409;-75
2021/07/22 02:34:11;;;;;;;18.10;12.30;;;;;;;;;;4953953;28;20047;-77
2021/07/22 02:36:38;;;;;;;16.15;11.38;;;;;;;;;;4953297;29;20106;-76
2021/07/22 02:39:04;;;;;;;16.50;11.30;;;;;;;;;;4953735;28;20603;-76
2021/07/22 02:41:32;;;;;;;17.05;11.60;;;;;;;;;;4953793;29;20047;-77
2021/07/22 02:43:59;;;;;;;17.75;12.05;;;;;;;;;;4953714;28;20142;-76
2021/07/22 02:46:27;;;;;;;16.83;11.15;;;;;;;;;;4953263;29;20102;-76
2021/07/22 02:48:57;;;;;;;16.50;11.27;;;;;;;;;;4953582;28;20051;-76
2021/07/22 02:51:24;;;;;;;15.35;11.63;;;;;;;;;;4953895;29;20058;-76
2021/07/22 02:53:51;;;;;;;16.75;11.32;;;;;;;;;;4953788;29;20390;-76
2021/07/22 02:56:17;;;;;;;16.00;11.85;;;;;;;;;;4952770;29;20203;-76
2021/07/22 02:58:44;;;;;;;16.20;10.98;;;;;;;;;;4953228;28;20520;-76
2021/07/22 03:01:11;;;;;;;19.08;12.15;;;;;;;;;;4953467;29;20047;-77
2021/07/22 03:03:39;;;;;;;18.15;11.88;;;;;;;;;;4953895;28;20043;-76
2021/07/22 03:06:06;;;;;;;17.42;11.07;;;;;;;;;;4955252;28;20058;-76
2021/07/22 03:08:32;;;;;;;18.15;12.00;;;;;;;;;;4957078;28;20501;-76
2021/07/22 03:10:59;;;;;;;17.00;11.00;;;;;;;;;;4957020;28;20266;-76
2021/07/22 03:13:26;;;;;;;16.90;11.05;;;;;;;;;;4956880;28;20134;-76
2021/07/22 03:15:53;;;;;;;19.23;12.88;;;;;;;;;;4956103;29;20098;-76
2021/07/22 03:18:20;;;;;;;15.55;11.40;;;;;;;;;;4958341;28;20055;-76
2021/07/22 03:20:49;;;;;;;16.55;11.77;;;;;;;;;;4958844;29;20051;-77
2021/07/22 03:23:16;;;;;;;16.23;11.63;;;;;;;;;;4958915;28;20532;-77
2021/07/22 03:25:43;;;;;;;15.60;10.70;;;;;;;;;;4958154;29;20106;-77
2021/07/22 03:28:10;;;;;;;16.65;11.95;;;;;;;;;;4958871;28;20051;-76
2021/07/22 03:30:37;;;;;;;17.48;11.90;;;;;;;;;;4957897;28;20047;-75
2021/07/22 03:33:03;;;;;;;16.85;11.30;;;;;;;;;;4956637;29;20535;-76
2021/07/22 03:35:30;;;;;;;16.52;11.52;;;;;;;;;;4955897;29;20059;-77
2021/07/22 03:38:01;;;;;;;16.65;11.35;;;;;;;;;;4956608;28;20051;-77
2021/07/22 03:40:28;;;;;;;17.92;11.80;;;;;;;;;;4956259;29;20408;-77
2021/07/22 03:42:55;;;;;;;16.45;11.63;;;;;;;;;;4956528;29;20051;-77
2021/07/22 03:45:21;;;;;;;16.80;11.82;;;;;;;;;;4955863;29;20067;-77
2021/07/22 03:47:48;;;;;;;16.73;11.73;;;;;;;;;;4957387;28;20051;-77
2021/07/22 03:50:15;;;;;;;16.88;11.18;;;;;;;;;;4956664;29;20406;-76
2021/07/22 03:52:42;;;;;;;14.65;10.48;;;;;;;;;;4956708;29;20044;-76
2021/07/22 03:55:12;;;;;;;16.05;10.43;;;;;;;;;;4955754;29;20047;-76
2021/07/22 03:57:38;;;;;;;17.15;12.43;;;;;;;;;;4956353;28;20412;-77
2021/07/22 04:00:07;;;;;;;17.83;11.25;;;;;;;;;;4955942;29;20043;-76
2021/07/22 04:02:33;;;;;;;16.48;11.20;;;;;;;;;;4956252;28;20106;-76
2021/07/22 04:05:00;;;;;;;16.58;11.15;;;;;;;;;;4955624;28;20044;-76
2021/07/22 04:07:27;;;;;;;16.30;11.30;;;;;;;;;;4955973;28;20048;-76
2021/07/22 04:09:54;;;;;;;17.05;11.05;;;;;;;;;;4955922;28;20575;-76
2021/07/22 04:12:22;;;;;;;18.10;11.23;;;;;;;;;;4956212;28;20069;-77
2021/07/22 04:14:49;;;;;;;14.27;10.75;;;;;;;;;;4955005;29;20497;-77
2021/07/22 04:17:15;;;;;;;16.85;12.18;;;;;;;;;;4955771;28;20047;-76
2021/07/22 04:19:42;;;;;;;16.35;11.52;;;;;;;;;;4956169;28;20076;-76
2021/07/22 04:22:11;;;;;;;15.52;11.68;;;;;;;;;;4955918;29;20051;-77
2021/07/22 04:24:38;;;;;;;19.80;11.55;;;;;;;;;;4955335;28;20054;-76
2021/07/22 04:27:08;;;;;;;16.35;11.25;;;;;;;;;;4955895;28;20102;-76
2021/07/22 04:29:36;;;;;;;17.93;11.90;;;;;;;;;;4955848;29;20408;-76
2021/07/22 04:32:03;;;;;;;20.50;13.05;;;;;;;;;;4955764;29;20401;-76
2021/07/22 04:34:29;;;;;;;18.30;12.25;;;;;;;;;;4955628;29;20472;-77
2021/07/22 04:36:56;;;;;;;18.33;11.70;;;;;;;;;;4954981;29;20055;-77
2021/07/22 04:39:23;;;;;;;15.50;11.25;;;;;;;;;;4956060;28;20043;-76
2021/07/22 04:41:49;;;;;;;20.75;12.50;;;;;;;;;;4955877;29;20519;-76
2021/07/22 04:44:16;;;;;;;16.52;11.18;;;;;;;;;;4956084;29;20055;-77
2021/07/22 04:46:44;;;;;;;16.42;12.20;;;;;;;;;;4955073;29;20047;-77
2021/07/22 04:49:11;;;;;;;19.45;13.70;;;;;;;;;;4955580;28;20579;-77
2021/07/22 04:51:37;;;;;;;21.85;13.88;;;;;;;;;;4955597;29;20083;-77
2021/07/22 04:54:04;;;;;;;20.67;13.27;;;;;;;;;;4956410;29;20075;-77
2021/07/22 04:56:31;;;;;;;20.33;12.25;;;;;;;;;;4956995;29;20052;-77
2021/07/22 04:58:57;;;;;;;20.13;13.27;;;;;;;;;;4957602;28;20043;-78
2021/07/22 05:01:24;;;;;;;21.00;13.00;;;;;;;;;;4957044;29;20485;-78
2021/07/22 05:03:52;;;;;;;21.75;13.77;;;;;;;;;;4957155;28;20055;-78
2021/07/22 05:06:19;;;;;;;26.23;14.15;;;;;;;;;;4956425;28;20083;-78
2021/07/22 05:08:46;;;;;;;23.83;13.32;;;;;;;;;;4955856;28;20107;-77
2021/07/22 05:11:12;;;;;;;21.70;13.30;;;;;;;;;;4955445;28;20051;-77
2021/07/22 05:13:40;;;;;;;20.52;12.75;;;;;;;;;;4955484;28;20477;-77
2021/07/22 05:16:07;;;;;;;21.77;13.85;;;;;;;;;;4954514;29;20489;-79
2021/07/22 05:18:34;;;;;;;19.08;12.65;;;;;;;;;;4956722;28;20138;-78
2021/07/22 05:21:05;;;;;;;22.55;13.07;;;;;;;;;;4955324;29;20110;-77
2021/07/22 05:23:32;;;;;;;21.15;13.70;;;;;;;;;;4955737;29;20051;-77
2021/07/22 05:25:59;;;;;;;21.20;13.80;;;;;;;;;;4954330;29;20098;-77
2021/07/22 05:28:26;;;;;;;19.98;12.90;;;;;;;;;;4954416;28;20047;-77
2021/07/22 05:30:52;;;;;;;20.77;12.98;;;;;;;;;;4954595;29;20122;-77
2021/07/22 05:33:19;;;;;;;21.50;13.18;;;;;;;;;;4956143;29;20461;-78
2021/07/22 05:35:46;;;;;;;26.02;14.82;;;;;;;;;;4956602;29;20101;-78
2021/07/22 05:38:14;;;;;;;22.88;15.20;;;;;;;;;;4956477;28;20051;-78
2021/07/22 05:40:41;;;;;;;20.45;14.10;;;;;;;;;;4958040;29;20095;-78
2021/07/22 05:43:07;;;;;;;24.40;15.40;;;;;;;;;;4956565;29;20050;-78
2021/07/22 05:45:35;;;;;;;22.95;15.15;;;;;;;;;;4955725;29;20110;-77
2021/07/22 05:48:02;;;;;;;24.15;16.65;;;;;;;;;;4955222;28;20063;-77
2021/07/22 05:50:28;;;;;;;22.65;16.13;;;;;;;;;;4954963;28;20412;-78
2021/07/22 05:52:58;;;;;;;25.48;15.07;;;;;;;;;;4954711;28;20097;-77
2021/07/22 05:55:27;;;;;;;23.10;14.85;;;;;;;;;;4954835;29;20047;-77
2021/07/22 05:57:53;;;;;;;23.70;14.32;;;;;;;;;;4955003;28;20122;-78
2021/07/22 06:00:20;;;;;;;22.88;14.80;;;;;;;;;;4955605;29;20047;-77
2021/07/22 06:02:47;;;;;;;22.90;14.15;;;;;;;;;;4954583;28;20110;-77
2021/07/22 06:05:14;;;;;;;24.45;15.75;;;;;;;;;;4954259;28;20047;-77
2021/07/22 06:07:41;;;;;;;24.95;17.08;;;;;;;;;;4954482;28;20433;-77
2021/07/22 06:10:08;;;;;;;24.30;15.15;;;;;;;;;;4954645;28;20158;-77
2021/07/22 06:12:36;;;;;;;24.83;16.48;;;;;;;;;;4955017;28;20453;-77
2021/07/22 06:15:04;;;;;;;21.02;14.05;;;;;;;;;;4955416;29;20043;-78
2021/07/22 06:17:30;;;;;;;24.23;15.00;;;;;;;;;;4954013;28;20406;-77
2021/07/22 06:19:57;;;;;;;25.45;14.90;;;;;;;;;;4954590;28;20074;-78
2021/07/22 06:22:24;;;;;;;22.60;13.45;;;;;;;;;;4954959;29;20466;-78
2021/07/22 06:24:50;;;;;;;26.33;15.05;;;;;;;;;;4954114;29;20079;-77
2021/07/22 06:27:17;;;;;;;25.98;14.63;;;;;;;;;;4954182;28;20102;-77
2021/07/22 06:29:45;;;;;;;21.98;13.38;;;;;;;;;;4954412;29;20074;-77
2021/07/22 06:32:12;;;;;;;20.02;13.63;;;;;;;;;;4954106;29;20051;-77
2021/07/22 06:34:39;;;;;;;21.27;13.65;;;;;;;;;;4953219;28;20047;-77
2021/07/22 06:37:05;;;;;;;28.50;20.83;;;;;;;;;;4954024;28;20457;-77
2021/07/22 06:39:33;;;;;;;22.55;15.27;;;;;;;;;;4955522;28;20456;-76
2021/07/22 06:42:00;;;;;;;19.48;13.93;;;;;;;;;;4958460;29;20043;-76
2021/07/22 06:44:28;;;;;;;27.17;15.13;;;;;;;;;;4958414;29;20048;-76
2021/07/22 06:46:56;;;;;;;23.52;14.77;;;;;;;;;;4957328;29;20047;-77
2021/07/22 06:49:23;;;;;;;19.05;12.55;;;;;;;;;;4957713;29;20121;-77
2021/07/22 06:51:51;;;;;;;19.58;13.27;;;;;;;;;;4957950;29;20055;-77
2021/07/22 06:54:18;;;;;;;17.02;11.77;;;;;;;;;;4957890;28;20047;-76
2021/07/22 06:56:44;;;;;;;20.90;12.90;;;;;;;;;;4957219;28;20102;-77
2021/07/22 06:59:11;;;;;;;20.10;12.50;;;;;;;;;;4969505;23;20055;-77
2021/07/22 07:01:38;;;;;;;19.20;12.63;;;;;;;;;;4952745;29;20051;-77
2021/07/22 07:04:06;;;;;;;16.98;11.63;;;;;;;;;;4955227;28;20047;-78
2021/07/22 07:06:34;;;;;;;17.73;12.35;;;;;;;;;;4956674;29;20051;-77
2021/07/22 07:09:01;;;;;;;19.05;12.18;;;;;;;;;;4943949;29;20126;-77
2021/07/22 07:11:28;;;;;;;20.00;12.48;;;;;;;;;;4937652;29;20421;-77
2021/07/22 07:13:54;;;;;;;17.77;12.68;;;;;;;;;;4937109;29;20528;-77
2021/07/22 07:16:21;;;;;;;19.10;12.32;;;;;;;;;;4936709;29;20047;-77
2021/07/22 07:18:48;;;;;;;17.75;11.98;;;;;;;;;;4936226;29;20085;-78
2021/07/22 07:21:16;;;;;;;18.70;13.05;;;;;;;;;;4936525;29;20044;-78
2021/07/22 07:23:43;;;;;;;19.67;12.55;;;;;;;;;;4936401;29;20059;-78
2021/07/22 07:26:10;;;;;;;20.92;14.98;;;;;;;;;;4935960;29;20123;-78
2021/07/22 07:28:37;;;;;;;20.50;14.38;;;;;;;;;;4936273;29;20076;-78
2021/07/22 07:31:04;;;;;;;17.55;12.65;;;;;;;;;;4936289;29;20485;-78
2021/07/22 07:33:31;;;;;;;22.42;15.75;;;;;;;;;;4935753;29;20043;-77
2021/07/22 07:35:58;;;;;;;17.50;13.20;;;;;;;;;;4935938;29;20127;-78
2021/07/22 07:38:26;;;;;;;23.67;16.98;;;;;;;;;;4936227;29;20048;-77
2021/07/22 07:40:53;;;;;;;17.75;12.85;;;;;;;;;;4936434;29;20135;-78
2021/07/22 07:43:28;;;;;;;18.48;11.95;;;;;;;;;;4936107;29;20052;-77
2021/07/22 07:45:55;;;;;;;17.75;12.50;;;;;;;;;;4936485;29;20055;-77
2021/07/22 07:48:22;;;;;;;18.75;12.43;;;;;;;;;;4935684;29;20061;-77
2021/07/22 07:50:49;;;;;;;20.13;11.93;;;;;;;;;;4935426;29;20131;-77
2021/07/22 07:53:18;;;;;;;18.20;10.95;;;;;;;;;;4936104;29;20107;-78
2021/07/22 07:55:47;;;;;;;19.60;12.80;;;;;;;;;;4935386;29;20449;-77
2021/07/22 07:58:14;;;;;;;16.95;11.50;;;;;;;;;;4936336;29;20286;-77
2021/07/22 08:00:45;;;;;;;16.25;11.30;;;;;;;;;;4936533;29;20492;-78
2021/07/22 08:03:18;;;;;;;16.63;11.10;;;;;;;;;;4937232;29;20051;-77
2021/07/22 08:05:45;;;;;;;17.60;11.93;;;;;;;;;;4936978;29;20134;-77
2021/07/22 08:08:12;;;;;;;17.63;11.73;;;;;;;;;;4937601;29;20052;-77
2021/07/22 08:10:40;;;;;;;19.58;11.80;;;;;;;;;;4938597;29;20102;-77
2021/07/22 08:13:09;;;;;;;18.30;11.93;;;;;;;;;;4939214;29;20062;-77
2021/07/22 08:15:36;;;;;;;16.02;11.07;;;;;;;;;;4937740;29;20638;-78
2021/07/22 08:18:03;;;;;;;19.48;12.27;;;;;;;;;;4938064;29;20082;-77
2021/07/22 08:20:30;;;;;;;18.25;12.90;;;;;;;;;;4937402;29;20106;-77
2021/07/22 08:22:57;;;;;;;19.40;11.85;;;;;;;;;;4936579;29;20115;-78
2021/07/22 08:25:24;;;;;;;16.98;10.85;;;;;;;;;;4935794;29;20229;-78
2021/07/22 08:27:51;;;;;;;14.07;10.73;;;;;;;;;;4936256;29;20047;-77
2021/07/22 08:30:19;;;;;;;17.27;11.73;;;;;;;;;;4935642;29;20059;-78
2021/07/22 08:32:46;;;;;;;20.00;12.00;;;;;;;;;;4936042;29;20296;-78
2021/07/22 08:35:13;;;;;;;18.60;11.32;;;;;;;;;;4935361;29;20052;-78
2021/07/22 08:37:40;;;;;;;18.33;11.38;;;;;;;;;;4935418;29;20052;-78
2021/07/22 08:40:11;;;;;;;19.70;12.45;;;;;;;;;;4935430;29;20059;-78
2021/07/22 08:42:40;;;;;;;16.10;11.63;;;;;;;;;;4935477;29;20040;-78
2021/07/22 08:45:08;;;;;;;19.35;11.35;;;;;;;;;;4934999;29;20051;-78
2021/07/22 08:47:37;;;;;;;17.05;11.43;;;;;;;;;;4935069;29;20051;-78
2021/07/22 08:50:08;;;;;;;16.33;10.73;;;;;;;;;;4934854;29;20122;-78
2021/07/22 08:52:35;;;;;;;15.60;10.48;;;;;;;;;;4936147;29;20075;-78
2021/07/22 08:55:02;;;;;;;14.75;10.95;;;;;;;;;;4935473;29;20099;-80
2021/07/22 08:57:32;;;;;;;17.75;11.23;;;;;;;;;;4936952;29;20047;-78
2021/07/22 08:59:59;;;;;;;19.38;11.95;;;;;;;;;;4936781;29;20039;-78
2021/07/22 09:02:29;;;;;;;15.95;9.90;;;;;;;;;;4936457;29;20102;-78
2021/07/22 09:04:59;;;;;;;15.25;10.15;;;;;;;;;;4938168;29;20051;-78
2021/07/22 09:07:26;;;;;;;15.18;10.55;;;;;;;;;;4939999;29;20058;-77
2021/07/22 09:10:21;;;;;;;17.75;11.43;;;;;;;;;;4939382;29;20520;-78
2021/07/22 09:12:49;;;;;;;14.45;10.40;;;;;;;;;;4938159;29;20060;-78
2021/07/22 09:15:24;;;;;;;15.20;10.25;;;;;;;;;;4936682;29;20043;-78
2021/07/22 09:17:51;;;;;;;14.00;10.30;;;;;;;;;;4936631;29;20060;-78
2021/07/22 09:20:31;;;;;;;13.85;9.48;;;;;;;;;;4936649;29;20051;-78
2021/07/22 09:22:58;;;;;;;;;;;;;;;;;;4935934;29;20130;-77
2021/07/22 09:25:41;;;;;;;18.70;11.75;;;;;;;;;;4935367;29;19970;-78
2021/07/22 09:28:09;;;;;;;18.63;10.85;;;;;;;;;;4934059;29;20402;-78
2021/07/22 09:30:36;;;;;;;17.98;12.13;;;;;;;;;;4934497;29;20071;-78
2021/07/22 09:33:06;;;;;;;16.55;11.00;;;;;;;;;;4934783;29;20163;-78
2021/07/22 09:35:38;;;;;;;13.70;9.60;;;;;;;;;;4933490;29;20505;-78
2021/07/22 09:38:12;;;;;;;13.45;9.07;;;;;;;;;;4933343;29;20044;-77
2021/07/22 09:40:42;;;;;;;13.55;8.95;;;;;;;;;;4934339;29;20079;-77
2021/07/22 09:43:09;;;;;;;14.77;9.77;;;;;;;;;;4935537;29;20111;-78
2021/07/22 09:45:38;;;;;;;17.95;10.32;;;;;;;;;;4936050;29;20047;-78
2021/07/22 09:48:09;;;;;;;14.00;9.95;;;;;;;;;;4936525;29;20123;-78
2021/07/22 09:50:44;;;;;;;15.20;10.15;;;;;;;;;;4936878;29;20059;-78
2021/07/22 09:53:12;;;;;;;17.48;10.45;;;;;;;;;;4937040;29;20498;-78
2021/07/22 09:55:40;;;;;;;15.63;9.95;;;;;;;;;;4937081;29;20063;-82
2021/07/22 09:58:10;;;;;;;15.25;10.00;;;;;;;;;;4938794;29;20056;-77
2021/07/22 10:00:41;;;;;;;14.57;10.95;;;;;;;;;;4937514;29;20297;-79
2021/07/22 10:03:10;;;;;;;16.00;10.23;;;;;;;;;;4934679;29;20277;-79
2021/07/22 10:05:41;;;;;;;13.98;9.80;;;;;;;;;;4933680;29;20054;-80
2021/07/22 10:08:09;;;;;;;14.93;9.98;;;;;;;;;;4937050;29;20114;-78
2021/07/22 10:10:37;;;;;;;15.93;10.48;;;;;;;;;;4936311;29;20047;-78
2021/07/22 10:13:04;;;;;;;13.65;9.82;;;;;;;;;;4936916;29;20111;-78
2021/07/22 10:15:35;;;;;;;17.50;11.25;;;;;;;;;;4938470;29;20077;-77
2021/07/22 10:18:04;;;;;;;15.38;10.40;;;;;;;;;;4934627;29;20103;-78
2021/07/22 10:20:32;;;;;;;15.20;10.20;;;;;;;;;;4934083;29;20067;-79
2021/07/22 10:22:59;;;;;;;14.70;9.85;;;;;;;;;;4933716;29;20126;-78
2021/07/22 10:25:28;;;;;;;13.48;9.73;;;;;;;;;;4933404;29;20052;-78
2021/07/22 10:27:56;;;;;;;15.15;9.73;;;;;;;;;;4933891;29;20048;-77
2021/07/22 10:30:24;;;;;;;13.30;9.07;;;;;;;;;;4933425;29;20103;-78
2021/07/22 10:32:53;;;;;;;16.65;10.70;;;;;;;;;;4933753;29;20051;-78
2021/07/22 10:35:22;;;;;;;18.20;10.80;;;;;;;;;;4932878;29;20576;-78
2021/07/22 10:38:14;;;;;;;13.68;10.60;;;;;;;;;;4933265;29;20290;-78
2021/07/22 10:40:50;;;;;;;16.42;10.57;;;;;;;;;;4937991;29;20108;-78
2021/07/22 10:43:40;;;;;;;16.58;10.35;;;;;;;;;;4947495;29;20048;-79
2021/07/22 10:46:07;;;;;;;;;;;;;;;;;;4949380;29;20095;-79
2021/07/22 10:48:34;;;;;;;16.20;10.00;;;;;;;;;;4951771;29;19947;-80
2021/07/22 10:51:09;;;;;;;15.95;10.05;;;;;;;;;;4951066;29;20044;-78
2021/07/22 10:53:50;;;;;;;16.02;11.20;;;;;;;;;;4951627;29;20048;-79
2021/07/22 10:56:40;;;;;;;15.48;10.52;;;;;;;;;;4950081;29;20103;-77
2021/07/22 10:59:06;;;;;;;17.98;11.80;;;;;;;;;;4949051;29;20091;-80
2021/07/22 11:02:04;;;;;;;16.75;10.75;;;;;;;;;;4947896;29;20047;-81
2021/07/22 11:04:50;;;;;;;15.40;10.70;;;;;;;;;;4945039;29;20048;-79
2021/07/22 11:07:23;;;;;;;16.27;10.82;;;;;;;;;;4944644;29;20052;-79
2021/07/22 11:09:53;;;;;;;13.95;10.05;;;;;;;;;;4943544;29;20047;-78
2021/07/22 11:12:55;;;;;;;16.20;10.95;;;;;;;;;;4932221;29;20048;-78
2021/07/22 11:16:00;;;;;;;15.15;10.57;;;;;;;;;;4931856;29;20138;-78
2021/07/22 11:18:49;;;;;;;13.80;10.45;;;;;;;;;;4942071;29;20107;-77
2021/07/22 11:21:18;;;;;;;15.25;10.95;;;;;;;;;;4933211;29;20742;-79
2021/07/22 11:23:53;;;;;;;13.70;9.73;;;;;;;;;;4933156;29;20044;-79
2021/07/22 11:26:22;;;;;;;15.05;10.30;;;;;;;;;;4933173;29;20070;-79
2021/07/22 11:28:51;;;;;;;16.27;11.13;;;;;;;;;;4935386;29;20091;-78
2021/07/22 11:31:18;;;;;;;14.20;10.32;;;;;;;;;;4935669;29;20055;-78
2021/07/22 11:33:45;;;;;;;17.20;11.77;;;;;;;;;;4935677;29;20110;-79
2021/07/22 11:36:14;;;;;;;14.93;10.52;;;;;;;;;;4936069;29;20076;-78
2021/07/22 11:38:41;;;;;;;16.13;10.27;;;;;;;;;;4936357;29;20052;-79
2021/07/22 11:41:11;;;;;;;16.77;11.95;;;;;;;;;;4935747;29;20051;-79
2021/07/22 11:43:40;;;;;;;13.88;9.95;;;;;;;;;;4936167;29;20043;-79
2021/07/22 11:46:10;;;;;;;15.45;10.88;;;;;;;;;;4935501;29;20406;-79
2021/07/22 11:48:38;;;;;;;13.77;10.63;;;;;;;;;;4936464;29;20106;-79
2021/07/22 11:51:08;;;;;;;15.13;11.20;;;;;;;;;;4936139;29;20557;-79
2021/07/22 11:53:36;;;;;;;15.20;11.05;;;;;;;;;;4936356;29;20746;-79
2021/07/22 11:56:14;;;;;;;16.67;11.18;;;;;;;;;;4936549;29;20077;-79
2021/07/22 11:58:44;;;;;;;17.88;11.60;;;;;;;;;;4935783;29;20107;-78
2021/07/22 12:01:13;;;;;;;15.95;11.55;;;;;;;;;;4935944;29;20071;-79
2021/07/22 12:03:40;;;;;;;15.82;11.25;;;;;;;;;;4935673;29;20051;-79
2021/07/22 12:06:08;;;;;;;14.65;11.35;;;;;;;;;;4935227;29;20075;-79
2021/07/22 12:08:34;;;;;;;15.32;10.30;;;;;;;;;;4935646;29;20462;-79
2021/07/22 12:11:03;;;;;;;14.60;9.98;;;;;;;;;;4941883;29;20072;-79
2021/07/22 12:13:48;;;;;;;14.95;10.70;;;;;;;;;;4958277;29;20124;-79
2021/07/22 12:16:17;;;;;;;15.30;10.95;;;;;;;;;;4960223;28;20048;-79
2021/07/22 12:18:44;;;;;;;14.77;10.65;;;;;;;;;;4960491;29;20075;-79
2021/07/22 12:21:24;;;;;;;15.55;11.25;;;;;;;;;;4960280;28;20055;-79
2021/07/22 12:23:51;;;;;;;17.05;11.02;;;;;;;;;;4957360;29;20043;-78
2021/07/22 12:26:19;;;;;;;15.85;11.02;;;;;;;;;;4936483;29;20517;-78
2021/07/22 12:29:00;;;;;;;14.52;11.02;;;;;;;;;;4936502;29;20097;-79
2021/07/22 12:31:37;;;;;;;17.45;11.38;;;;;;;;;;4936409;29;20055;-79
2021/07/22 12:34:05;;;;;;;14.60;11.25;;;;;;;;;;4936541;29;20050;-79
2021/07/22 12:36:33;;;;;;;13.77;11.27;;;;;;;;;;4935888;29;20048;-79
2021/07/22 12:39:17;;;;;;;15.77;10.77;;;;;;;;;;4936684;29;20058;-79
2021/07/22 12:41:44;;;;;;;15.68;10.55;;;;;;;;;;4916631;29;20051;-79
2021/07/22 12:44:31;;;;;;;15.75;10.35;;;;;;;;;;4926633;29;20130;-80
2021/07/22 12:46:59;;;;;;;14.60;10.43;;;;;;;;;;4936477;29;20039;-79
2021/07/22 12:49:41;;;;;;;16.90;11.75;;;;;;;;;;4937045;29;20600;-79
2021/07/22 12:52:09;;;;;;;17.00;11.60;;;;;;;;;;4935979;29;20422;-79
2021/07/22 12:54:36;;;;;;;15.38;11.30;;;;;;;;;;4934959;29;20497;-80
2021/07/22 12:57:07;;;;;;;17.00;10.88;;;;;;;;;;4938027;29;20043;-79
2021/07/22 12:59:34;;;;;;;15.20;10.43;;;;;;;;;;4967850;23;20138;-77
2021/07/22 13:02:03;;;;;;;15.30;11.25;;;;;;;;;;4976985;28;20039;-78
2021/07/22 13:04:30;;;;;;;14.68;11.32;;;;;;;;;;4975949;28;20046;-76
2021/07/22 13:06:57;;;;;;;25.83;20.70;;;;;;;;;;4978703;28;20499;-77
2021/07/22 13:09:24;;;;;;;17.75;12.40;;;;;;;;;;4964874;28;20051;-77
2021/07/22 13:11:54;;;;;;;15.38;10.85;;;;;;;;;;4955628;28;20058;-75
2021/07/22 13:14:21;;;;;;;14.75;11.80;;;;;;;;;;4954537;28;20078;-77
2021/07/22 13:16:48;;;;;;;15.73;11.10;;;;;;;;;;4954717;28;20054;-77
2021/07/22 13:19:16;;;;;;;14.90;11.02;;;;;;;;;;4954387;28;20110;-78
2021/07/22 13:21:43;;;;;;;17.00;11.00;;;;;;;;;;4955222;28;20058;-78
2021/07/22 13:24:10;;;;;;;17.10;11.20;;;;;;;;;;4954825;28;20051;-77
2021/07/22 13:26:38;;;;;;;16.48;11.50;;;;;;;;;;4954044;28;20043;-78
2021/07/22 13:29:04;;;;;;;15.50;10.93;;;;;;;;;;4954222;28;20125;-77
2021/07/22 13:31:31;;;;;;;13.85;10.50;;;;;;;;;;4955039;28;20047;-78
2021/07/22 13:33:58;;;;;;;18.05;11.45;;;;;;;;;;4955319;28;20052;-77
2021/07/22 13:36:26;;;;;;;14.90;11.05;;;;;;;;;;4953546;28;20047;-77
2021/07/22 13:38:53;;;;;;;13.65;9.98;;;;;;;;;;4953535;28;20107;-76
2021/07/22 13:41:20;;;;;;;16.67;11.48;;;;;;;;;;4955268;29;20066;-77
2021/07/22 13:43:47;;;;;;;14.80;11.13;;;;;;;;;;4961690;28;20043;-77
2021/07/22 13:46:14;;;;;;;14.88;10.70;;;;;;;;;;4957597;28;20443;-77
2021/07/22 13:48:41;;;;;;;12.95;9.95;;;;;;;;;;4957570;28;20055;-76
2021/07/22 13:51:08;;;;;;;14.35;11.05;;;;;;;;;;4954590;29;20082;-75
2021/07/22 13:53:37;;;;;;;14.13;12.60;;;;;;;;;;4953454;28;20468;-76
2021/07/22 13:56:04;;;;;;;15.23;13.63;;;;;;;;;;4952728;28;20560;-76
2021/07/22 13:58:31;;;;;;;14.55;10.95;;;;;;;;;;4953389;28;20062;-76
2021/07/22 14:00:57;;;;;;;14.68;9.80;;;;;;;;;;4953438;28;20102;-77
2021/07/22 14:03:24;;;;;;;12.88;10.82;;;;;;;;;;4953408;29;20480;-76
2021/07/22 14:05:51;;;;;;;14.77;10.98;;;;;;;;;;4952742;29;20460;-75
2021/07/22 14:08:19;;;;;;;14.02;10.68;;;;;;;;;;4953245;28;20551;-77
2021/07/22 14:10:48;;;;;;;15.82;10.65;;;;;;;;;;4953097;28;20054;-75
2021/07/22 14:13:15;;;;;;;15.40;11.32;;;;;;;;;;4954245;28;20062;-76
2021/07/22 14:15:41;;;;;;;13.00;10.23;;;;;;;;;;4952709;28;20047;-77
2021/07/22 14:18:08;;;;;;;14.48;10.63;;;;;;;;;;4953528;29;20050;-77
2021/07/22 14:20:35;;;;;;;13.88;10.15;;;;;;;;;;4953682;29;20043;-76
2021/07/22 14:23:03;;;;;;;19.60;11.32;;;;;;;;;;4953485;29;20130;-79
2021/07/22 14:25:30;;;;;;;17.55;10.45;;;;;;;;;;4953377;29;20051;-75
2021/07/22 14:27:58;;;;;;;14.70;10.38;;;;;;;;;;4952606;28;20472;-76